sensor_id;sensor_type;location;lat;lon;timestamp;temperature;humidity
20457;DHT22;10387;51.102;6.848;2023-02-28T00:00:10;-0.40;99.90
20457;DHT22;10387;51.102;6.848;2023-02-28T00:02:38;-0.50;99.90
20457;DHT22;10387;51.102;6.848;2023-02-28T00:05:04;-0.50;99.90
20457;DHT22;10387;51.102;6.848;2023-02-28T00:07:31;-0.50;99.90
20457;DHT22;10387;51.102;6.848;2023-02-28T00:09:57;-0.50;99.90
20457;DHT22;10387;51.102;6.848;2023-02-28T00:12:23;-0.60;99.90
20457;DHT22;10387;51.102;6.848;2023-02-28T00:14:49;-0.60;99.90
20457;DHT22;10387;51.102;6.848;2023-02-28T00:17:15;-0.50;99.90
20457;DHT22;10387;51.102;6.848;2023-02-28T00:19:49;-0.50;99.90
20457;DHT22;10387;51.102;6.848;2023-02-28T00:22:17;-0.40;99.90
20457;DHT22;10387;51.102;6.848;2023-02-28T00:24:43;-0.40;99.90
20457;DHT22;10387;51.102;6.848;2023-02-28T00:27:09;-0.40;99.90
20457;DHT22;10387;51.102;6.848;2023-02-28T00:29:35;-0.30;99.90
20457;DHT22;10387;51.102;6.848;2023-02-28T00:32:01;-0.30;99.90
20457;DHT22;10387;51.102;6.848;2023-02-28T00:34:27;-0.30;99.90
20457;DHT22;10387;51.102;6.848;2023-02-28T00:36:52;-0.30;99.90
20457;DHT22;10387;51.102;6.848;2023-02-28T00:39:18;-0.30;99.90
20457;DHT22;10387;51.102;6.848;2023-02-28T00:41:44;-0.30;99.90
20457;DHT22;10387;51.102;6.848;2023-02-28T00:44:09;-0.30;99.90
20457;DHT22;10387;51.102;6.848;2023-02-28T00:46:35;-0.30;99.90
20457;DHT22;10387;51.102;6.848;2023-02-28T00:49:01;-0.30;99.90
20457;DHT22;10387;51.102;6.848;2023-02-28T00:51:26;-0.40;99.90
20457;DHT22;10387;51.102;6.848;2023-02-28T00:53:52;-0.40;99.90
20457;DHT22;10387;51.102;6.848;2023-02-28T00:56:18;-0.40;99.90
20457;DHT22;10387;51.102;6.848;2023-02-28T00:58:43;-0.30;99.90
20457;DHT22;10387;51.102;6.848;2023-02-28T01:01:09;-0.40;99.90
20457;DHT22;10387;51.102;6.848;2023-02-28T01:03:37;-0.40;99.90
20457;DHT22;10387;51.102;6.848;2023-02-28T01:06:04;-0.40;99.90
20457;DHT22;10387;51.102;6.848;2023-02-28T01:08:30;-0.50;99.90
20457;DHT22;10387;51.102;6.848;2023-02-28T01:10:55;-0.40;99.90
20457;DHT22;10387;51.102;6.848;2023-02-28T01:13:21;-0.50;99.90
20457;DHT22;10387;51.102;6.848;2023-02-28T01:15:50;-0.50;99.90
20457;DHT22;10387;51.102;6.848;2023-02-28T01:18:17;-0.50;99.90
20457;DHT22;10387;51.102;6.848;2023-02-28T01:20:43;-0.60;99.90
20457;DHT22;10387;51.102;6.848;2023-02-28T01:23:09;-0.60;99.90
20457;DHT22;10387;51.102;6.848;2023-02-28T01:25:35;-0.60;99.90
20457;DHT22;10387;51.102;6.848;2023-02-28T01:28:04;-0.60;99.90
20457;DHT22;10387;51.102;6.848;2023-02-28T01:30:31;-0.60;99.90
20457;DHT22;10387;51.102;6.848;2023-02-28T01:32:58;-0.50;99.90
20457;DHT22;10387;51.102;6.848;2023-02-28T01:35:24;-0.50;99.90
20457;DHT22;10387;51.102;6.848;2023-02-28T01:37:50;-0.60;99.90
20457;DHT22;10387;51.102;6.848;2023-02-28T01:40:16;-0.60;99.90
20457;DHT22;10387;51.102;6.848;2023-02-28T01:42:41;-0.60;99.90
20457;DHT22;10387;51.102;6.848;2023-02-28T01:45:29;-0.70;99.90
20457;DHT22;10387;51.102;6.848;2023-02-28T01:48:02;-0.60;99.90
20457;DHT22;10387;51.102;6.848;2023-02-28T01:50:32;-0.60;99.90
20457;DHT22;10387;51.102;6.848;2023-02-28T01:53:02;-0.70;99.90
20457;DHT22;10387;51.102;6.848;2023-02-28T01:55:30;-0.70;99.90
20457;DHT22;10387;51.102;6.848;2023-02-28T01:58:01;-0.70;99.90
20457;DHT22;10387;51.102;6.848;2023-02-28T02:00:28;-0.80;99.90
20457;DHT22;10387;51.102;6.848;2023-02-28T02:02:58;-0.70;99.90
20457;DHT22;10387;51.102;6.848;2023-02-28T02:05:27;-0.80;99.90
20457;DHT22;10387;51.102;6.848;2023-02-28T02:08:24;-0.80;99.90
20457;DHT22;10387;51.102;6.848;2023-02-28T02:10:57;-0.80;99.90
20457;DHT22;10387;51.102;6.848;2023-02-28T02:22:51;-0.70;99.90
20457;DHT22;10387;51.102;6.848;2023-02-28T02:25:38;-0.80;99.90
20457;DHT22;10387;51.102;6.848;2023-02-28T02:36:42;-1.20;99.90
20457;DHT22;10387;51.102;6.848;2023-02-28T02:39:42;-1.20;99.90
20457;DHT22;10387;51.102;6.848;2023-02-28T02:42:31;-1.10;99.90
20457;DHT22;10387;51.102;6.848;2023-02-28T02:45:31;-1.20;99.90
20457;DHT22;10387;51.102;6.848;2023-02-28T02:47:57;-1.10;99.90
20457;DHT22;10387;51.102;6.848;2023-02-28T02:50:29;-1.10;99.90
20457;DHT22;10387;51.102;6.848;2023-02-28T02:53:00;-1.10;99.90
20457;DHT22;10387;51.102;6.848;2023-02-28T02:55:28;-1.00;99.90
20457;DHT22;10387;51.102;6.848;2023-02-28T02:58:02;-1.00;99.90
20457;DHT22;10387;51.102;6.848;2023-02-28T03:00:39;-1.10;99.90
20457;DHT22;10387;51.102;6.848;2023-02-28T03:03:10;-1.10;99.90
20457;DHT22;10387;51.102;6.848;2023-02-28T03:05:47;-1.10;99.90
20457;DHT22;10387;51.102;6.848;2023-02-28T03:08:13;-1.20;99.90
20457;DHT22;10387;51.102;6.848;2023-02-28T03:10:46;-1.30;99.90
20457;DHT22;10387;51.102;6.848;2023-02-28T03:13:36;-1.20;99.90
20457;DHT22;10387;51.102;6.848;2023-02-28T03:18:54;-1.20;99.90
20457;DHT22;10387;51.102;6.848;2023-02-28T03:21:36;-1.20;99.90
20457;DHT22;10387;51.102;6.848;2023-02-28T03:24:22;-1.10;99.90
20457;DHT22;10387;51.102;6.848;2023-02-28T03:26:54;-1.10;99.90
20457;DHT22;10387;51.102;6.848;2023-02-28T03:29:35;-1.10;99.90
20457;DHT22;10387;51.102;6.848;2023-02-28T03:32:15;-1.10;99.90
20457;DHT22;10387;51.102;6.848;2023-02-28T03:35:26;-1.10;99.90
20457;DHT22;10387;51.102;6.848;2023-02-28T03:37:52;-1.20;99.90
20457;DHT22;10387;51.102;6.848;2023-02-28T03:40:24;-1.20;99.90
20457;DHT22;10387;51.102;6.848;2023-02-28T03:42:56;-1.20;99.90
20457;DHT22;10387;51.102;6.848;2023-02-28T03:45:26;-1.20;99.90
20457;DHT22;10387;51.102;6.848;2023-02-28T03:48:07;-1.20;99.90
20457;DHT22;10387;51.102;6.848;2023-02-28T03:50:41;-1.30;99.90
20457;DHT22;10387;51.102;6.848;2023-02-28T03:53:21;-1.30;99.90
20457;DHT22;10387;51.102;6.848;2023-02-28T03:56:05;-1.30;99.90
20457;DHT22;10387;51.102;6.848;2023-02-28T04:01:16;-1.40;99.90
20457;DHT22;10387;51.102;6.848;2023-02-28T04:03:44;-1.40;99.90
20457;DHT22;10387;51.102;6.848;2023-02-28T04:06:16;-1.40;99.90
20457;DHT22;10387;51.102;6.848;2023-02-28T04:08:42;-1.50;99.90
20457;DHT22;10387;51.102;6.848;2023-02-28T04:13:40;-1.50;99.90
20457;DHT22;10387;51.102;6.848;2023-02-28T04:16:09;-1.50;99.90
20457;DHT22;10387;51.102;6.848;2023-02-28T04:18:41;-1.50;99.90
20457;DHT22;10387;51.102;6.848;2023-02-28T04:21:09;-1.50;99.90
20457;DHT22;10387;51.102;6.848;2023-02-28T04:23:34;-1.60;99.90
20457;DHT22;10387;51.102;6.848;2023-02-28T04:26:00;-1.60;99.90
20457;DHT22;10387;51.102;6.848;2023-02-28T04:28:26;-1.50;99.90
20457;DHT22;10387;51.102;6.848;2023-02-28T04:30:57;-1.50;99.90
20457;DHT22;10387;51.102;6.848;2023-02-28T04:33:23;-1.50;99.90
20457;DHT22;10387;51.102;6.848;2023-02-28T04:36:07;-1.60;99.90
20457;DHT22;10387;51.102;6.848;2023-02-28T04:38:38;-1.60;99.90
20457;DHT22;10387;51.102;6.848;2023-02-28T04:41:04;-1.60;99.90
20457;DHT22;10387;51.102;6.848;2023-02-28T04:43:31;-1.60;99.90
20457;DHT22;10387;51.102;6.848;2023-02-28T04:45:59;-1.60;99.90
20457;DHT22;10387;51.102;6.848;2023-02-28T04:48:28;-1.60;99.90
20457;DHT22;10387;51.102;6.848;2023-02-28T04:50:54;-1.60;99.90
20457;DHT22;10387;51.102;6.848;2023-02-28T04:53:20;-1.60;99.90
20457;DHT22;10387;51.102;6.848;2023-02-28T04:55:46;-1.60;99.90
20457;DHT22;10387;51.102;6.848;2023-02-28T04:58:15;-1.70;99.90
20457;DHT22;10387;51.102;6.848;2023-02-28T05:00:41;-1.70;99.90
20457;DHT22;10387;51.102;6.848;2023-02-28T05:03:07;-1.70;99.90
20457;DHT22;10387;51.102;6.848;2023-02-28T05:05:33;-1.70;99.90
20457;DHT22;10387;51.102;6.848;2023-02-28T05:07:58;-1.70;99.90
20457;DHT22;10387;51.102;6.848;2023-02-28T05:10:25;-1.70;99.90
20457;DHT22;10387;51.102;6.848;2023-02-28T05:12:50;-1.70;99.90
20457;DHT22;10387;51.102;6.848;2023-02-28T05:15:16;-1.70;99.90
20457;DHT22;10387;51.102;6.848;2023-02-28T05:17:42;-1.70;99.90
20457;DHT22;10387;51.102;6.848;2023-02-28T05:20:09;-1.70;99.90
20457;DHT22;10387;51.102;6.848;2023-02-28T05:22:39;-1.80;99.90
20457;DHT22;10387;51.102;6.848;2023-02-28T05:25:06;-1.80;99.90
20457;DHT22;10387;51.102;6.848;2023-02-28T05:27:32;-1.80;99.90
20457;DHT22;10387;51.102;6.848;2023-02-28T05:29:58;-1.70;99.90
20457;DHT22;10387;51.102;6.848;2023-02-28T05:32:24;-1.70;99.90
20457;DHT22;10387;51.102;6.848;2023-02-28T05:34:50;-1.70;99.90
20457;DHT22;10387;51.102;6.848;2023-02-28T05:37:16;-1.70;99.90
20457;DHT22;10387;51.102;6.848;2023-02-28T05:39:42;-1.70;99.90
20457;DHT22;10387;51.102;6.848;2023-02-28T05:42:08;-1.80;99.90
20457;DHT22;10387;51.102;6.848;2023-02-28T05:44:35;-1.80;99.90
20457;DHT22;10387;51.102;6.848;2023-02-28T05:47:01;-1.80;99.90
20457;DHT22;10387;51.102;6.848;2023-02-28T05:49:26;-1.90;99.90
20457;DHT22;10387;51.102;6.848;2023-02-28T05:51:52;-1.80;99.90
20457;DHT22;10387;51.102;6.848;2023-02-28T05:54:18;-1.90;99.90
20457;DHT22;10387;51.102;6.848;2023-02-28T05:56:43;-2.00;99.90
20457;DHT22;10387;51.102;6.848;2023-02-28T05:59:14;-1.90;99.90
20457;DHT22;10387;51.102;6.848;2023-02-28T06:01:41;-2.00;99.90
20457;DHT22;10387;51.102;6.848;2023-02-28T06:04:09;-2.00;99.90
20457;DHT22;10387;51.102;6.848;2023-02-28T06:06:36;-2.10;99.90
20457;DHT22;10387;51.102;6.848;2023-02-28T06:09:03;-2.10;99.90
20457;DHT22;10387;51.102;6.848;2023-02-28T06:11:29;-2.00;99.90
20457;DHT22;10387;51.102;6.848;2023-02-28T06:13:59;-2.00;99.90
20457;DHT22;10387;51.102;6.848;2023-02-28T06:16:26;-2.00;99.90
20457;DHT22;10387;51.102;6.848;2023-02-28T06:18:53;-2.00;99.90
20457;DHT22;10387;51.102;6.848;2023-02-28T06:21:21;-1.90;99.90
20457;DHT22;10387;51.102;6.848;2023-02-28T06:23:47;-1.80;99.90
20457;DHT22;10387;51.102;6.848;2023-02-28T06:26:13;-1.80;99.90
20457;DHT22;10387;51.102;6.848;2023-02-28T06:28:39;-1.80;99.90
20457;DHT22;10387;51.102;6.848;2023-02-28T06:31:13;-1.70;99.90
20457;DHT22;10387;51.102;6.848;2023-02-28T06:33:40;-1.70;99.90
20457;DHT22;10387;51.102;6.848;2023-02-28T06:36:07;-1.70;99.90
20457;DHT22;10387;51.102;6.848;2023-02-28T06:38:33;-1.70;99.90
20457;DHT22;10387;51.102;6.848;2023-02-28T06:41:00;-1.60;99.90
20457;DHT22;10387;51.102;6.848;2023-02-28T06:43:28;-1.70;99.90
20457;DHT22;10387;51.102;6.848;2023-02-28T06:45:56;-1.60;99.90
20457;DHT22;10387;51.102;6.848;2023-02-28T06:48:22;-1.60;99.90
20457;DHT22;10387;51.102;6.848;2023-02-28T06:50:47;-1.60;99.90
20457;DHT22;10387;51.102;6.848;2023-02-28T06:53:13;-1.50;99.90
20457;DHT22;10387;51.102;6.848;2023-02-28T06:55:40;-1.30;99.90
20457;DHT22;10387;51.102;6.848;2023-02-28T06:58:07;-1.20;99.90
20457;DHT22;10387;51.102;6.848;2023-02-28T07:00:45;-1.20;99.90
20457;DHT22;10387;51.102;6.848;2023-02-28T07:03:11;-1.10;99.90
20457;DHT22;10387;51.102;6.848;2023-02-28T07:05:38;-1.10;99.90
20457;DHT22;10387;51.102;6.848;2023-02-28T07:08:05;-1.00;99.90
20457;DHT22;10387;51.102;6.848;2023-02-28T07:10:32;-0.90;99.90
20457;DHT22;10387;51.102;6.848;2023-02-28T07:12:58;-0.90;99.90
20457;DHT22;10387;51.102;6.848;2023-02-28T07:15:24;-0.80;99.90
20457;DHT22;10387;51.102;6.848;2023-02-28T07:17:50;-0.70;99.90
20457;DHT22;10387;51.102;6.848;2023-02-28T07:20:16;-0.60;99.90
20457;DHT22;10387;51.102;6.848;2023-02-28T07:22:41;-0.50;99.90
20457;DHT22;10387;51.102;6.848;2023-02-28T07:25:10;-0.40;99.90
20457;DHT22;10387;51.102;6.848;2023-02-28T07:27:35;-0.40;99.90
20457;DHT22;10387;51.102;6.848;2023-02-28T07:30:01;-0.30;99.90
20457;DHT22;10387;51.102;6.848;2023-02-28T07:32:29;-0.30;99.90
20457;DHT22;10387;51.102;6.848;2023-02-28T07:35:09;-0.20;99.90
20457;DHT22;10387;51.102;6.848;2023-02-28T07:37:35;-0.10;99.90
20457;DHT22;10387;51.102;6.848;2023-02-28T07:40:05;0.00;99.90
20457;DHT22;10387;51.102;6.848;2023-02-28T07:42:36;0.10;99.90
20457;DHT22;10387;51.102;6.848;2023-02-28T07:45:04;0.30;99.90
20457;DHT22;10387;51.102;6.848;2023-02-28T07:47:31;0.40;99.90
20457;DHT22;10387;51.102;6.848;2023-02-28T07:49:57;0.60;99.90
20457;DHT22;10387;51.102;6.848;2023-02-28T07:52:23;0.70;99.90
20457;DHT22;10387;51.102;6.848;2023-02-28T07:54:50;0.80;99.90
20457;DHT22;10387;51.102;6.848;2023-02-28T07:57:16;0.90;99.90
20457;DHT22;10387;51.102;6.848;2023-02-28T07:59:42;1.10;99.90
20457;DHT22;10387;51.102;6.848;2023-02-28T08:02:13;1.20;99.90
20457;DHT22;10387;51.102;6.848;2023-02-28T08:04:40;1.30;99.90
20457;DHT22;10387;51.102;6.848;2023-02-28T08:07:05;1.40;99.90
20457;DHT22;10387;51.102;6.848;2023-02-28T08:09:31;1.50;99.90
20457;DHT22;10387;51.102;6.848;2023-02-28T08:11:57;1.60;99.90
20457;DHT22;10387;51.102;6.848;2023-02-28T08:14:23;1.80;99.90
20457;DHT22;10387;51.102;6.848;2023-02-28T08:16:48;1.80;99.90
20457;DHT22;10387;51.102;6.848;2023-02-28T08:19:14;1.90;99.90
20457;DHT22;10387;51.102;6.848;2023-02-28T08:21:40;2.00;99.90
20457;DHT22;10387;51.102;6.848;2023-02-28T08:24:06;2.10;99.90
20457;DHT22;10387;51.102;6.848;2023-02-28T08:26:32;2.30;99.90
20457;DHT22;10387;51.102;6.848;2023-02-28T08:28:57;2.30;99.90
20457;DHT22;10387;51.102;6.848;2023-02-28T08:31:23;2.40;99.90
20457;DHT22;10387;51.102;6.848;2023-02-28T08:33:49;2.50;99.90
20457;DHT22;10387;51.102;6.848;2023-02-28T08:36:17;2.50;99.90
20457;DHT22;10387;51.102;6.848;2023-02-28T08:38:43;2.50;99.90
20457;DHT22;10387;51.102;6.848;2023-02-28T08:41:11;2.60;99.90
20457;DHT22;10387;51.102;6.848;2023-02-28T08:43:37;2.70;99.90
20457;DHT22;10387;51.102;6.848;2023-02-28T08:46:04;2.70;99.90
20457;DHT22;10387;51.102;6.848;2023-02-28T08:48:31;2.80;99.90
20457;DHT22;10387;51.102;6.848;2023-02-28T08:51:23;2.90;99.90
20457;DHT22;10387;51.102;6.848;2023-02-28T08:53:53;2.90;99.90
20457;DHT22;10387;51.102;6.848;2023-02-28T08:56:19;3.00;99.90
20457;DHT22;10387;51.102;6.848;2023-02-28T08:58:46;2.90;99.90
20457;DHT22;10387;51.102;6.848;2023-02-28T09:01:19;3.00;99.90
20457;DHT22;10387;51.102;6.848;2023-02-28T09:03:46;3.10;99.90
20457;DHT22;10387;51.102;6.848;2023-02-28T09:06:14;3.10;99.90
20457;DHT22;10387;51.102;6.848;2023-02-28T09:08:40;3.10;99.90
20457;DHT22;10387;51.102;6.848;2023-02-28T09:11:06;3.20;99.90
20457;DHT22;10387;51.102;6.848;2023-02-28T09:13:32;3.30;99.90
20457;DHT22;10387;51.102;6.848;2023-02-28T09:15:59;3.30;99.90
20457;DHT22;10387;51.102;6.848;2023-02-28T09:18:26;3.30;99.90
20457;DHT22;10387;51.102;6.848;2023-02-28T09:20:52;3.30;99.90
20457;DHT22;10387;51.102;6.848;2023-02-28T09:23:18;3.30;99.90
20457;DHT22;10387;51.102;6.848;2023-02-28T09:25:49;3.40;99.90
20457;DHT22;10387;51.102;6.848;2023-02-28T09:28:15;3.40;99.90
20457;DHT22;10387;51.102;6.848;2023-02-28T09:30:46;3.50;99.90
20457;DHT22;10387;51.102;6.848;2023-02-28T09:33:13;3.60;99.90
20457;DHT22;10387;51.102;6.848;2023-02-28T09:35:38;3.80;99.90
20457;DHT22;10387;51.102;6.848;2023-02-28T09:38:05;3.80;99.90
20457;DHT22;10387;51.102;6.848;2023-02-28T09:40:54;3.80;99.90
20457;DHT22;10387;51.102;6.848;2023-02-28T09:43:25;3.80;99.90
20457;DHT22;10387;51.102;6.848;2023-02-28T09:48:48;4.00;99.90
20457;DHT22;10387;51.102;6.848;2023-02-28T09:53:56;4.10;99.90
20457;DHT22;10387;51.102;6.848;2023-02-28T09:56:25;4.10;99.90
20457;DHT22;10387;51.102;6.848;2023-02-28T09:59:02;4.20;99.90
20457;DHT22;10387;51.102;6.848;2023-02-28T10:01:35;4.30;99.90
20457;DHT22;10387;51.102;6.848;2023-02-28T10:04:35;4.30;99.90
20457;DHT22;10387;51.102;6.848;2023-02-28T10:07:20;4.20;99.90
20457;DHT22;10387;51.102;6.848;2023-02-28T10:09:51;4.20;99.90
20457;DHT22;10387;51.102;6.848;2023-02-28T10:12:17;4.30;99.90
20457;DHT22;10387;51.102;6.848;2023-02-28T10:14:47;4.50;99.90
20457;DHT22;10387;51.102;6.848;2023-02-28T10:17:17;4.70;99.90
20457;DHT22;10387;51.102;6.848;2023-02-28T10:23:16;5.10;99.90
20457;DHT22;10387;51.102;6.848;2023-02-28T10:25:46;5.10;99.90
20457;DHT22;10387;51.102;6.848;2023-02-28T10:28:15;5.20;99.90
20457;DHT22;10387;51.102;6.848;2023-02-28T10:30:50;5.20;99.90
20457;DHT22;10387;51.102;6.848;2023-02-28T10:33:32;5.20;99.90
20457;DHT22;10387;51.102;6.848;2023-02-28T10:35:58;5.20;99.90
20457;DHT22;10387;51.102;6.848;2023-02-28T10:38:27;5.40;99.90
20457;DHT22;10387;51.102;6.848;2023-02-28T10:41:11;5.20;99.90
20457;DHT22;10387;51.102;6.848;2023-02-28T10:43:40;4.90;99.90
20457;DHT22;10387;51.102;6.848;2023-02-28T10:48:41;4.40;99.90
20457;DHT22;10387;51.102;6.848;2023-02-28T10:51:13;4.50;99.90
20457;DHT22;10387;51.102;6.848;2023-02-28T10:53:48;4.50;99.90
20457;DHT22;10387;51.102;6.848;2023-02-28T11:01:17;4.60;99.90
20457;DHT22;10387;51.102;6.848;2023-02-28T11:03:43;4.60;99.90
20457;DHT22;10387;51.102;6.848;2023-02-28T11:06:18;4.80;99.90
20457;DHT22;10387;51.102;6.848;2023-02-28T11:08:48;5.00;99.90
20457;DHT22;10387;51.102;6.848;2023-02-28T11:11:15;5.10;99.90
20457;DHT22;10387;51.102;6.848;2023-02-28T11:13:44;5.00;99.90
20457;DHT22;10387;51.102;6.848;2023-02-28T11:16:12;5.00;99.90
20457;DHT22;10387;51.102;6.848;2023-02-28T11:18:50;5.00;99.90
20457;DHT22;10387;51.102;6.848;2023-02-28T11:21:26;4.90;99.90
20457;DHT22;10387;51.102;6.848;2023-02-28T11:26:46;4.60;99.90
20457;DHT22;10387;51.102;6.848;2023-02-28T11:32:22;4.50;99.90
20457;DHT22;10387;51.102;6.848;2023-02-28T11:35:03;4.70;99.90
20457;DHT22;10387;51.102;6.848;2023-02-28T11:37:31;4.80;99.90
20457;DHT22;10387;51.102;6.848;2023-02-28T11:39:57;5.00;99.90
20457;DHT22;10387;51.102;6.848;2023-02-28T11:43:04;4.90;99.90
20457;DHT22;10387;51.102;6.848;2023-02-28T11:46:03;4.80;99.90
20457;DHT22;10387;51.102;6.848;2023-02-28T11:48:33;4.80;99.90
20457;DHT22;10387;51.102;6.848;2023-02-28T11:53:58;4.50;99.90
20457;DHT22;10387;51.102;6.848;2023-02-28T11:56:38;4.60;99.90
20457;DHT22;10387;51.102;6.848;2023-02-28T11:59:40;4.70;99.90
20457;DHT22;10387;51.102;6.848;2023-02-28T12:02:33;4.70;99.90
20457;DHT22;10387;51.102;6.848;2023-02-28T12:05:53;4.80;99.90
20457;DHT22;10387;51.102;6.848;2023-02-28T12:16:35;4.90;99.90
20457;DHT22;10387;51.102;6.848;2023-02-28T12:19:07;4.90;99.90
20457;DHT22;10387;51.102;6.848;2023-02-28T12:24:31;4.90;99.90
20457;DHT22;10387;51.102;6.848;2023-02-28T12:27:03;4.80;99.90
20457;DHT22;10387;51.102;6.848;2023-02-28T12:29:38;4.60;99.90
20457;DHT22;10387;51.102;6.848;2023-02-28T12:32:16;4.60;99.90
20457;DHT22;10387;51.102;6.848;2023-02-28T12:34:50;4.80;99.90
20457;DHT22;10387;51.102;6.848;2023-02-28T12:40:15;5.10;99.90
20457;DHT22;10387;51.102;6.848;2023-02-28T12:42:46;5.20;99.90
20457;DHT22;10387;51.102;6.848;2023-02-28T12:45:23;5.30;99.90
20457;DHT22;10387;51.102;6.848;2023-02-28T12:48:12;5.40;99.90
20457;DHT22;10387;51.102;6.848;2023-02-28T12:50:40;5.50;99.90
20457;DHT22;10387;51.102;6.848;2023-02-28T12:56:23;5.60;99.90
20457;DHT22;10387;51.102;6.848;2023-02-28T13:04:54;5.60;99.90
20457;DHT22;10387;51.102;6.848;2023-02-28T13:07:53;5.70;99.50
20457;DHT22;10387;51.102;6.848;2023-02-28T13:10:24;5.80;99.80
20457;DHT22;10387;51.102;6.848;2023-02-28T13:12:52;5.80;99.90
20457;DHT22;10387;51.102;6.848;2023-02-28T13:15:19;5.80;99.90
20457;DHT22;10387;51.102;6.848;2023-02-28T13:17:53;5.80;99.90
20457;DHT22;10387;51.102;6.848;2023-02-28T13:20:24;5.80;99.90
20457;DHT22;10387;51.102;6.848;2023-02-28T13:22:53;5.80;99.90
20457;DHT22;10387;51.102;6.848;2023-02-28T13:27:52;6.00;99.40
20457;DHT22;10387;51.102;6.848;2023-02-28T13:34:04;6.00;98.70
20457;DHT22;10387;51.102;6.848;2023-02-28T13:36:26;6.00;99.20
20457;DHT22;10387;51.102;6.848;2023-02-28T13:38:57;6.00;98.80
20457;DHT22;10387;51.102;6.848;2023-02-28T13:44:19;6.10;99.40
20457;DHT22;10387;51.102;6.848;2023-02-28T13:49:40;6.10;98.80
20457;DHT22;10387;51.102;6.848;2023-02-28T14:05:39;6.30;99.10
20457;DHT22;10387;51.102;6.848;2023-02-28T14:08:12;6.30;98.90
20457;DHT22;10387;51.102;6.848;2023-02-28T14:10:46;6.20;99.10
20457;DHT22;10387;51.102;6.848;2023-02-28T14:13:43;6.30;99.00
20457;DHT22;10387;51.102;6.848;2023-02-28T14:16:21;6.30;97.70
20457;DHT22;10387;51.102;6.848;2023-02-28T14:18:51;6.30;98.00
20457;DHT22;10387;51.102;6.848;2023-02-28T14:21:24;6.30;98.50
20457;DHT22;10387;51.102;6.848;2023-02-28T14:27:11;6.30;99.90
20457;DHT22;10387;51.102;6.848;2023-02-28T14:30:15;6.30;98.50
20457;DHT22;10387;51.102;6.848;2023-02-28T14:35:56;6.30;98.40
20457;DHT22;10387;51.102;6.848;2023-02-28T14:38:39;6.30;98.00
20457;DHT22;10387;51.102;6.848;2023-02-28T14:41:24;6.30;97.80
20457;DHT22;10387;51.102;6.848;2023-02-28T14:43:59;6.30;98.60
20457;DHT22;10387;51.102;6.848;2023-02-28T14:46:37;6.30;98.30
20457;DHT22;10387;51.102;6.848;2023-02-28T14:49:05;6.30;97.80
20457;DHT22;10387;51.102;6.848;2023-02-28T14:51:33;6.40;97.20
20457;DHT22;10387;51.102;6.848;2023-02-28T14:54:01;6.40;97.00
20457;DHT22;10387;51.102;6.848;2023-02-28T14:56:35;6.40;96.60
20457;DHT22;10387;51.102;6.848;2023-02-28T14:59:04;6.40;97.80
20457;DHT22;10387;51.102;6.848;2023-02-28T15:01:30;6.30;97.80
20457;DHT22;10387;51.102;6.848;2023-02-28T15:04:05;6.30;98.30
20457;DHT22;10387;51.102;6.848;2023-02-28T15:06:32;6.30;98.80
20457;DHT22;10387;51.102;6.848;2023-02-28T15:09:17;6.30;97.40
20457;DHT22;10387;51.102;6.848;2023-02-28T15:11:48;6.30;96.90
20457;DHT22;10387;51.102;6.848;2023-02-28T15:14:20;6.40;96.50
20457;DHT22;10387;51.102;6.848;2023-02-28T15:16:51;6.40;96.80
20457;DHT22;10387;51.102;6.848;2023-02-28T15:21:47;6.20;97.30
20457;DHT22;10387;51.102;6.848;2023-02-28T15:26:54;6.20;96.50
20457;DHT22;10387;51.102;6.848;2023-02-28T15:29:23;6.30;96.90
20457;DHT22;10387;51.102;6.848;2023-02-28T15:31:52;6.20;97.00
20457;DHT22;10387;51.102;6.848;2023-02-28T15:34:38;6.20;97.40
20457;DHT22;10387;51.102;6.848;2023-02-28T15:40:03;6.20;97.20
20457;DHT22;10387;51.102;6.848;2023-02-28T15:42:30;6.20;97.20
20457;DHT22;10387;51.102;6.848;2023-02-28T15:44:57;6.20;97.10
20457;DHT22;10387;51.102;6.848;2023-02-28T15:47:27;6.20;97.20
20457;DHT22;10387;51.102;6.848;2023-02-28T15:50:05;6.20;96.80
20457;DHT22;10387;51.102;6.848;2023-02-28T15:52:45;6.20;96.80
20457;DHT22;10387;51.102;6.848;2023-02-28T15:55:26;6.10;96.90
20457;DHT22;10387;51.102;6.848;2023-02-28T15:58:02;6.10;96.50
20457;DHT22;10387;51.102;6.848;2023-02-28T16:00:29;6.00;96.80
20457;DHT22;10387;51.102;6.848;2023-02-28T16:02:55;6.10;96.90
20457;DHT22;10387;51.102;6.848;2023-02-28T16:05:29;6.00;97.10
20457;DHT22;10387;51.102;6.848;2023-02-28T16:08:11;6.00;96.70
20457;DHT22;10387;51.102;6.848;2023-02-28T16:10:38;5.90;98.60
20457;DHT22;10387;51.102;6.848;2023-02-28T16:13:06;5.80;99.90
20457;DHT22;10387;51.102;6.848;2023-02-28T16:15:37;5.70;99.90
20457;DHT22;10387;51.102;6.848;2023-02-28T16:18:08;5.60;99.90
20457;DHT22;10387;51.102;6.848;2023-02-28T16:20:35;5.50;99.90
20457;DHT22;10387;51.102;6.848;2023-02-28T16:23:01;5.40;99.90
20457;DHT22;10387;51.102;6.848;2023-02-28T16:25:39;5.30;99.90
20457;DHT22;10387;51.102;6.848;2023-02-28T16:28:15;5.30;99.90
20457;DHT22;10387;51.102;6.848;2023-02-28T16:30:43;5.20;99.90
20457;DHT22;10387;51.102;6.848;2023-02-28T16:33:09;5.20;99.90
20457;DHT22;10387;51.102;6.848;2023-02-28T16:35:42;5.50;99.90
20457;DHT22;10387;51.102;6.848;2023-02-28T16:38:07;6.00;99.90
20457;DHT22;10387;51.102;6.848;2023-02-28T16:40:34;6.40;99.90
20457;DHT22;10387;51.102;6.848;2023-02-28T16:43:05;6.50;99.90
20457;DHT22;10387;51.102;6.848;2023-02-28T16:45:32;6.40;99.90
20457;DHT22;10387;51.102;6.848;2023-02-28T16:47:57;6.00;99.90
20457;DHT22;10387;51.102;6.848;2023-02-28T16:50:32;5.60;99.90
20457;DHT22;10387;51.102;6.848;2023-02-28T16:53:04;5.20;99.90
20457;DHT22;10387;51.102;6.848;2023-02-28T16:55:30;4.90;99.90
20457;DHT22;10387;51.102;6.848;2023-02-28T16:57:58;4.70;99.90
20457;DHT22;10387;51.102;6.848;2023-02-28T17:00:25;4.50;99.90
20457;DHT22;10387;51.102;6.848;2023-02-28T17:02:51;4.40;99.90
20457;DHT22;10387;51.102;6.848;2023-02-28T17:05:17;4.30;99.90
20457;DHT22;10387;51.102;6.848;2023-02-28T17:07:44;4.30;99.90
20457;DHT22;10387;51.102;6.848;2023-02-28T17:10:18;4.30;99.90
20457;DHT22;10387;51.102;6.848;2023-02-28T17:12:44;4.20;99.90
20457;DHT22;10387;51.102;6.848;2023-02-28T17:15:15;4.20;99.90
20457;DHT22;10387;51.102;6.848;2023-02-28T17:17:42;4.10;99.90
20457;DHT22;10387;51.102;6.848;2023-02-28T17:20:13;4.00;99.90
20457;DHT22;10387;51.102;6.848;2023-02-28T17:22:40;4.00;99.90
20457;DHT22;10387;51.102;6.848;2023-02-28T17:25:07;4.00;99.90
20457;DHT22;10387;51.102;6.848;2023-02-28T17:27:33;3.90;99.90
20457;DHT22;10387;51.102;6.848;2023-02-28T17:29:59;3.80;99.90
20457;DHT22;10387;51.102;6.848;2023-02-28T17:32:26;3.80;99.90
20457;DHT22;10387;51.102;6.848;2023-02-28T17:34:53;3.70;99.90
20457;DHT22;10387;51.102;6.848;2023-02-28T17:37:19;3.70;99.90
20457;DHT22;10387;51.102;6.848;2023-02-28T17:39:44;3.60;99.90
20457;DHT22;10387;51.102;6.848;2023-02-28T17:42:10;3.60;99.90
20457;DHT22;10387;51.102;6.848;2023-02-28T17:44:36;3.60;99.90
20457;DHT22;10387;51.102;6.848;2023-02-28T17:47:03;3.60;99.90
20457;DHT22;10387;51.102;6.848;2023-02-28T17:49:29;3.50;99.90
20457;DHT22;10387;51.102;6.848;2023-02-28T17:51:55;3.50;99.90
20457;DHT22;10387;51.102;6.848;2023-02-28T17:54:20;3.40;99.90